Time;durP1;ratioP1;P1;durP2;ratioP2;P2;SDS_P1;SDS_P2;PMS_P1;PMS_P2;Temp;Humidity;BMP_temperature;BMP_pressure;BME280_temperature;BME280_humidity;BME280_pressure;Samples;Min_cycle;Max_cycle;Signal;HPM_P1;HPM_P2
2021/08/12 00:01:02;;;;;;;20.73;18.57;;;;;;;;;;5094290;28;20452;-75
2021/08/12 00:03:29;;;;;;;20.70;18.70;;;;;;;;;;5094378;28;21011;-75
2021/08/12 00:05:56;;;;;;;20.37;18.47;;;;;;;;;;5094528;28;20522;-75
2021/08/12 00:08:23;;;;;;;21.13;18.83;;;;;;;;;;5094118;28;20535;-76
2021/08/12 00:10:51;;;;;;;19.67;17.87;;;;;;;;;;5094391;28;20793;-75
2021/08/12 00:13:20;;;;;;;20.10;18.10;;;;;;;;;;5093940;28;20849;-74
2021/08/12 00:15:47;;;;;;;21.60;19.50;;;;;;;;;;5094362;28;20837;-75
2021/08/12 00:18:15;;;;;;;21.47;19.23;;;;;;;;;;5094299;28;20466;-75
2021/08/12 00:20:42;;;;;;;21.90;19.60;;;;;;;;;;5093883;28;20571;-75
2021/08/12 00:23:09;;;;;;;21.03;19.03;;;;;;;;;;5093829;28;20552;-75
2021/08/12 00:25:36;;;;;;;20.67;18.60;;;;;;;;;;5094395;28;20531;-75
2021/08/12 00:28:04;;;;;;;20.50;18.50;;;;;;;;;;5094092;28;20519;-75
2021/08/12 00:30:32;;;;;;;22.33;20.23;;;;;;;;;;5094072;28;20484;-75
2021/08/12 00:33:00;;;;;;;21.87;19.87;;;;;;;;;;5094031;28;20519;-75
2021/08/12 00:35:27;;;;;;;23.90;21.00;;;;;;;;;;5094525;28;20445;-75
2021/08/12 00:37:54;;;;;;;22.13;19.97;;;;;;;;;;5093624;28;20527;-75
2021/08/12 00:40:22;;;;;;;23.03;20.70;;;;;;;;;;5093825;28;20917;-75
2021/08/12 00:42:49;;;;;;;22.13;19.87;;;;;;;;;;5093920;28;20520;-75
2021/08/12 00:45:17;;;;;;;22.33;20.23;;;;;;;;;;5093642;28;20445;-75
2021/08/12 00:47:45;;;;;;;20.67;18.80;;;;;;;;;;5093979;28;20476;-76
2021/08/12 00:50:13;;;;;;;22.73;20.43;;;;;;;;;;5094153;28;20532;-75
2021/08/12 00:52:41;;;;;;;22.40;20.33;;;;;;;;;;5093655;28;20440;-75
2021/08/12 00:55:08;;;;;;;23.33;21.00;;;;;;;;;;5094206;28;20447;-75
2021/08/12 00:57:36;;;;;;;20.63;18.73;;;;;;;;;;5093339;28;20526;-75
2021/08/12 01:00:03;;;;;;;22.67;20.23;;;;;;;;;;5093844;28;20489;-75
2021/08/12 01:02:31;;;;;;;22.43;20.37;;;;;;;;;;5093975;28;20441;-74
2021/08/12 01:04:59;;;;;;;22.03;19.73;;;;;;;;;;5094073;28;20440;-74
2021/08/12 01:07:32;;;;;;;23.37;20.87;;;;;;;;;;5093519;28;20530;-75
2021/08/12 01:10:02;;;;;;;22.80;20.20;;;;;;;;;;5094150;28;20889;-75
2021/08/12 01:12:32;;;;;;;22.30;20.07;;;;;;;;;;5093504;28;20441;-74
2021/08/12 01:15:02;;;;;;;22.07;19.77;;;;;;;;;;5093549;28;20447;-75
2021/08/12 01:17:33;;;;;;;22.00;19.60;;;;;;;;;;5093527;28;20443;-75
2021/08/12 01:20:33;;;;;;;21.83;18.13;;;;;;;;;;5093372;28;21006;-74
2021/08/12 01:23:02;;;;;;;21.17;19.30;;;;;;;;;;5010941;28;20866;-75
2021/08/12 01:25:31;;;;;;;23.57;21.47;;;;;;;;;;5014897;28;20449;-74
2021/08/12 01:28:00;;;;;;;23.00;20.83;;;;;;;;;;5053358;28;20514;-75
2021/08/12 01:30:30;;;;;;;24.43;22.10;;;;;;;;;;5097233;28;20949;-75
2021/08/12 01:33:02;;;;;;;23.03;20.80;;;;;;;;;;5097154;28;20923;-75
2021/08/12 01:35:31;;;;;;;23.87;21.60;;;;;;;;;;5097557;28;20424;-75
2021/08/12 01:38:01;;;;;;;25.33;20.70;;;;;;;;;;5097345;28;20444;-75
2021/08/12 01:40:29;;;;;;;22.17;20.13;;;;;;;;;;5097812;28;20562;-75
2021/08/12 01:42:56;;;;;;;21.77;19.67;;;;;;;;;;5097202;28;20967;-75
2021/08/12 01:45:24;;;;;;;22.57;20.53;;;;;;;;;;5097661;28;20804;-75
2021/08/12 01:47:51;;;;;;;25.37;22.77;;;;;;;;;;5097196;28;20432;-75
2021/08/12 01:50:19;;;;;;;24.63;22.23;;;;;;;;;;5097324;28;20441;-76
2021/08/12 01:52:48;;;;;;;23.63;21.20;;;;;;;;;;5096752;28;20448;-75
2021/08/12 01:55:16;;;;;;;23.37;21.10;;;;;;;;;;5096720;28;20457;-75
2021/08/12 01:57:45;;;;;;;23.63;21.37;;;;;;;;;;5097186;28;20436;-75
2021/08/12 02:00:13;;;;;;;22.73;20.53;;;;;;;;;;5097186;28;20475;-75
2021/08/12 02:02:42;;;;;;;29.30;23.00;;;;;;;;;;5096854;28;20436;-75
2021/08/12 02:05:12;;;;;;;22.80;20.53;;;;;;;;;;5096543;28;20450;-75
2021/08/12 02:07:40;;;;;;;23.80;21.40;;;;;;;;;;5096747;28;20926;-74
2021/08/12 02:10:09;;;;;;;25.17;22.10;;;;;;;;;;5096787;28;20448;-74
2021/08/12 02:12:36;;;;;;;24.30;21.93;;;;;;;;;;5097042;28;20920;-75
2021/08/12 02:15:04;;;;;;;25.90;23.10;;;;;;;;;;5096675;28;20443;-76
2021/08/12 02:17:31;;;;;;;24.70;22.10;;;;;;;;;;5096677;28;20792;-75
2021/08/12 02:19:58;;;;;;;24.37;21.70;;;;;;;;;;5096187;28;21017;-75
2021/08/12 02:22:27;;;;;;;24.90;22.50;;;;;;;;;;5096485;28;20447;-76
2021/08/12 02:24:57;;;;;;;24.27;21.93;;;;;;;;;;5095189;28;20455;-75
2021/08/12 02:27:26;;;;;;;26.77;24.00;;;;;;;;;;5095231;28;20458;-75
2021/08/12 02:29:54;;;;;;;24.43;21.90;;;;;;;;;;5094900;28;20953;-75
2021/08/12 02:32:22;;;;;;;27.00;23.67;;;;;;;;;;5095165;28;20448;-75
2021/08/12 02:34:49;;;;;;;23.90;21.40;;;;;;;;;;5094770;28;20447;-76
2021/08/12 02:37:18;;;;;;;25.00;21.50;;;;;;;;;;5095615;28;20436;-76
2021/08/12 02:39:46;;;;;;;25.07;22.53;;;;;;;;;;5095090;28;20529;-76
2021/08/12 02:42:14;;;;;;;25.27;22.67;;;;;;;;;;5095273;28;20919;-76
2021/08/12 02:44:43;;;;;;;26.10;23.63;;;;;;;;;;5094998;28;20448;-76
2021/08/12 02:47:11;;;;;;;26.10;23.47;;;;;;;;;;5094978;28;20447;-76
2021/08/12 02:49:41;;;;;;;25.47;22.77;;;;;;;;;;5094918;28;20439;-76
2021/08/12 02:52:09;;;;;;;26.00;23.30;;;;;;;;;;5095066;28;20428;-75
2021/08/12 02:54:36;;;;;;;28.17;25.27;;;;;;;;;;5095522;28;20455;-74
2021/08/12 02:57:05;;;;;;;26.43;23.93;;;;;;;;;;5094851;28;20439;-74
2021/08/12 02:59:32;;;;;;;26.53;23.77;;;;;;;;;;5094303;28;20441;-74
2021/08/12 03:02:01;;;;;;;29.10;26.10;;;;;;;;;;5094376;28;20446;-75
2021/08/12 03:04:28;;;;;;;28.90;26.10;;;;;;;;;;5095245;28;20440;-74
2021/08/12 03:06:57;;;;;;;27.93;25.07;;;;;;;;;;5094628;28;20452;-74
2021/08/12 03:09:25;;;;;;;27.93;24.97;;;;;;;;;;5094307;28;20449;-74
2021/08/12 03:11:53;;;;;;;30.80;27.60;;;;;;;;;;5094179;28;20444;-74
2021/08/12 03:14:20;;;;;;;26.30;23.60;;;;;;;;;;5094560;28;20444;-75
2021/08/12 03:16:48;;;;;;;29.57;26.73;;;;;;;;;;5095074;28;20443;-75
2021/08/12 03:19:18;;;;;;;29.07;26.27;;;;;;;;;;5094490;28;20531;-74
2021/08/12 03:22:01;;;;;;;29.97;26.87;;;;;;;;;;5094682;28;20478;-73
2021/08/12 03:24:29;;;;;;;31.43;28.23;;;;;;;;;;5056452;28;1101639;-75
2021/08/12 03:26:56;;;;;;;31.40;28.20;;;;;;;;;;5095267;28;20190;-75
2021/08/12 03:29:24;;;;;;;30.70;27.70;;;;;;;;;;5095270;28;20440;-76
2021/08/12 03:31:51;;;;;;;31.10;27.97;;;;;;;;;;5095170;28;20444;-77
2021/08/12 03:34:19;;;;;;;31.87;28.40;;;;;;;;;;5095638;28;20467;-76
2021/08/12 03:36:47;;;;;;;28.63;25.87;;;;;;;;;;5095325;28;20445;-77
2021/08/12 03:39:14;;;;;;;29.43;26.13;;;;;;;;;;5095086;28;20446;-77
2021/08/12 03:41:42;;;;;;;30.50;27.30;;;;;;;;;;5094950;28;20570;-76
2021/08/12 03:44:09;;;;;;;32.63;29.10;;;;;;;;;;5094981;28;20454;-77
2021/08/12 03:46:36;;;;;;;30.43;27.47;;;;;;;;;;5094348;28;20861;-77
2021/08/12 03:49:03;;;;;;;32.00;28.60;;;;;;;;;;5094998;28;20442;-77
2021/08/12 03:51:32;;;;;;;31.27;27.83;;;;;;;;;;5094945;28;20446;-77
2021/08/12 03:54:00;;;;;;;32.67;29.00;;;;;;;;;;5094875;28;20448;-77
2021/08/12 03:56:27;;;;;;;32.57;29.30;;;;;;;;;;5094744;28;20440;-76
2021/08/12 03:58:55;;;;;;;33.33;29.93;;;;;;;;;;5094359;28;21002;-76
2021/08/12 04:01:22;;;;;;;35.23;31.00;;;;;;;;;;5094382;28;21004;-75
2021/08/12 04:03:49;;;;;;;36.00;32.30;;;;;;;;;;5094907;28;20435;-76
2021/08/12 04:06:16;;;;;;;33.90;30.30;;;;;;;;;;5094791;28;20441;-76
2021/08/12 04:08:45;;;;;;;38.83;34.13;;;;;;;;;;5094495;28;20449;-76
2021/08/12 04:11:12;;;;;;;35.10;31.53;;;;;;;;;;5094433;28;20451;-76
2021/08/12 04:13:39;;;;;;;36.30;32.60;;;;;;;;;;5094422;28;20444;-74
2021/08/12 04:16:07;;;;;;;35.77;31.93;;;;;;;;;;5094431;28;20452;-75
2021/08/12 04:18:34;;;;;;;35.33;31.67;;;;;;;;;;5094358;28;20531;-77
2021/08/12 04:21:01;;;;;;;36.73;33.00;;;;;;;;;;5093881;28;20558;-77
2021/08/12 04:23:28;;;;;;;35.60;31.97;;;;;;;;;;5094036;28;20479;-74
2021/08/12 04:25:57;;;;;;;42.13;37.33;;;;;;;;;;5094159;28;20450;-73
2021/08/12 04:28:24;;;;;;;36.80;32.70;;;;;;;;;;5094141;28;20446;-76
2021/08/12 04:30:51;;;;;;;35.00;31.40;;;;;;;;;;5093980;28;20950;-75
2021/08/12 04:33:19;;;;;;;38.40;34.27;;;;;;;;;;5095005;28;20955;-73
2021/08/12 04:35:46;;;;;;;37.13;31.33;;;;;;;;;;5105559;28;20451;-75
2021/08/12 04:38:14;;;;;;;36.80;32.80;;;;;;;;;;5113772;28;20445;-74
2021/08/12 04:40:41;;;;;;;36.00;32.10;;;;;;;;;;5113846;28;20506;-74
2021/08/12 04:43:09;;;;;;;36.40;32.70;;;;;;;;;;5114285;28;20858;-73
2021/08/12 04:45:37;;;;;;;38.00;33.90;;;;;;;;;;5113628;28;20478;-73
2021/08/12 04:48:05;;;;;;;39.80;35.50;;;;;;;;;;5113283;28;20514;-76
2021/08/12 04:50:34;;;;;;;37.17;33.10;;;;;;;;;;5113384;28;20811;-73
2021/08/12 04:53:01;;;;;;;41.27;33.17;;;;;;;;;;5113957;28;20443;-74
2021/08/12 04:55:28;;;;;;;41.93;34.70;;;;;;;;;;5114421;28;20443;-74
2021/08/12 04:57:55;;;;;;;37.20;33.13;;;;;;;;;;5114037;28;20483;-74
2021/08/12 05:00:24;;;;;;;36.87;32.07;;;;;;;;;;5114105;28;20469;-75
2021/08/12 05:02:52;;;;;;;39.20;35.10;;;;;;;;;;5114005;28;20439;-74
2021/08/12 05:05:19;;;;;;;39.60;33.53;;;;;;;;;;5113954;28;20464;-73
2021/08/12 05:07:47;;;;;;;39.20;35.03;;;;;;;;;;5114247;28;20435;-74
2021/08/12 05:10:14;;;;;;;38.67;34.23;;;;;;;;;;5114244;28;20799;-75
2021/08/12 05:12:41;;;;;;;38.47;33.30;;;;;;;;;;5114729;28;20535;-67
2021/08/12 05:15:09;;;;;;;37.90;33.77;;;;;;;;;;5113487;28;20439;-74
2021/08/12 05:17:37;;;;;;;44.20;35.80;;;;;;;;;;5113807;28;20435;-76
2021/08/12 05:20:05;;;;;;;39.43;35.17;;;;;;;;;;5113435;28;20431;-76
2021/08/12 05:22:33;;;;;;;43.50;35.67;;;;;;;;;;5113163;28;20478;-76
2021/08/12 05:25:05;;;;;;;40.37;33.63;;;;;;;;;;5114500;28;20449;-76
2021/08/12 05:27:33;;;;;;;42.10;34.97;;;;;;;;;;5114241;28;20930;-76
2021/08/12 05:30:00;;;;;;;38.77;34.67;;;;;;;;;;5113835;28;20446;-76
2021/08/12 05:32:27;;;;;;;38.27;33.80;;;;;;;;;;5114031;28;20450;-76
2021/08/12 05:34:55;;;;;;;42.33;34.80;;;;;;;;;;5113659;28;20442;-76
2021/08/12 05:37:23;;;;;;;39.97;35.20;;;;;;;;;;5113238;28;20435;-76
2021/08/12 05:39:50;;;;;;;41.40;33.40;;;;;;;;;;5113556;28;20449;-76
2021/08/12 05:42:17;;;;;;;37.43;33.20;;;;;;;;;;5113486;28;20470;-76
2021/08/12 05:44:44;;;;;;;37.30;32.17;;;;;;;;;;5113596;28;20549;-76
2021/08/12 05:47:11;;;;;;;37.70;33.47;;;;;;;;;;5113564;28;20439;-76
2021/08/12 05:49:39;;;;;;;41.10;32.77;;;;;;;;;;5113508;28;20445;-76
2021/08/12 05:52:07;;;;;;;36.83;32.13;;;;;;;;;;5113568;28;20439;-79
2021/08/12 05:54:35;;;;;;;37.90;32.80;;;;;;;;;;5113098;28;20447;-79
2021/08/12 05:57:02;;;;;;;38.10;33.70;;;;;;;;;;5113470;28;20446;-76
2021/08/12 05:59:29;;;;;;;38.03;31.23;;;;;;;;;;5113453;28;20442;-79
2021/08/12 06:01:56;;;;;;;38.60;30.10;;;;;;;;;;5113040;28;20541;-79
2021/08/12 06:04:24;;;;;;;43.00;32.60;;;;;;;;;;5113986;28;20529;-79
2021/08/12 06:06:51;;;;;;;38.30;32.53;;;;;;;;;;5114031;28;20445;-78
2021/08/12 06:09:20;;;;;;;34.43;30.80;;;;;;;;;;5113328;28;20433;-79
2021/08/12 06:11:49;;;;;;;42.60;32.03;;;;;;;;;;5116551;28;20450;-79
2021/08/12 06:14:16;;;;;;;42.27;32.47;;;;;;;;;;5117605;28;20441;-79
2021/08/12 06:16:43;;;;;;;41.60;37.00;;;;;;;;;;5117037;28;20799;-78
2021/08/12 06:19:10;;;;;;;47.63;34.50;;;;;;;;;;5117010;28;20441;-78
2021/08/12 06:21:38;;;;;;;45.30;33.57;;;;;;;;;;5117132;28;20471;-78
2021/08/12 06:24:06;;;;;;;46.20;35.40;;;;;;;;;;5116853;28;20472;-79
2021/08/12 06:26:34;;;;;;;39.80;32.40;;;;;;;;;;5116583;28;20503;-79
2021/08/12 06:29:02;;;;;;;40.80;32.40;;;;;;;;;;5116492;28;20453;-78
2021/08/12 06:31:29;;;;;;;40.80;33.07;;;;;;;;;;5117335;28;20784;-79
2021/08/12 06:33:56;;;;;;;38.87;34.20;;;;;;;;;;5116786;28;20443;-79
2021/08/12 06:36:23;;;;;;;40.17;34.00;;;;;;;;;;5117017;28;20438;-79
2021/08/12 06:38:52;;;;;;;42.80;34.63;;;;;;;;;;5117500;28;20443;-79
2021/08/12 06:41:19;;;;;;;39.97;33.43;;;;;;;;;;5116737;28;20505;-79
2021/08/12 06:43:47;;;;;;;43.47;33.77;;;;;;;;;;5116599;28;20445;-80
2021/08/12 06:46:14;;;;;;;41.80;33.97;;;;;;;;;;5116459;28;20443;-79
2021/08/12 06:48:42;;;;;;;33.70;29.83;;;;;;;;;;5116810;28;20802;-79
2021/08/12 06:51:10;;;;;;;33.40;29.33;;;;;;;;;;5116677;28;20917;-80
2021/08/12 06:53:37;;;;;;;37.53;31.77;;;;;;;;;;5116317;28;20443;-78
2021/08/12 06:56:05;;;;;;;34.30;29.40;;;;;;;;;;5116084;28;20531;-77
2021/08/12 06:58:32;;;;;;;33.00;26.73;;;;;;;;;;5116722;28;20443;-77
2021/08/12 07:01:01;;;;;;;33.27;29.60;;;;;;;;;;5116085;28;20435;-79
2021/08/12 07:03:28;;;;;;;34.60;27.90;;;;;;;;;;5115902;28;20441;-78
2021/08/12 07:05:55;;;;;;;31.87;28.30;;;;;;;;;;5116068;28;20439;-78
2021/08/12 07:08:22;;;;;;;33.57;28.73;;;;;;;;;;5116107;28;20447;-78
2021/08/12 07:10:49;;;;;;;31.53;26.33;;;;;;;;;;5116237;28;20444;-79
2021/08/12 07:13:16;;;;;;;29.77;25.97;;;;;;;;;;5115995;28;20443;-79
2021/08/12 07:15:44;;;;;;;30.53;26.03;;;;;;;;;;5116538;28;20462;-78
2021/08/12 07:18:12;;;;;;;29.40;26.40;;;;;;;;;;5116204;28;20444;-79
2021/08/12 07:20:40;;;;;;;28.23;25.23;;;;;;;;;;5115523;28;20435;-79
2021/08/12 07:23:08;;;;;;;34.23;24.73;;;;;;;;;;5114046;28;20543;-80
2021/08/12 07:25:35;;;;;;;25.07;22.47;;;;;;;;;;5116020;28;20452;-80
2021/08/12 07:28:03;;;;;;;27.23;23.57;;;;;;;;;;5115621;28;20445;-77
2021/08/12 07:30:30;;;;;;;25.00;22.30;;;;;;;;;;5115344;28;20449;-78
2021/08/12 07:32:58;;;;;;;24.10;20.53;;;;;;;;;;5115990;28;20447;-78
2021/08/12 07:35:26;;;;;;;22.60;19.37;;;;;;;;;;5115668;28;20805;-77
2021/08/12 07:37:53;;;;;;;23.10;18.67;;;;;;;;;;5115384;28;20445;-78
2021/08/12 07:40:21;;;;;;;19.87;17.77;;;;;;;;;;5115238;28;20440;-78
2021/08/12 07:42:53;;;;;;;23.90;18.27;;;;;;;;;;5115187;28;20501;-79
2021/08/12 07:45:20;;;;;;;23.00;17.03;;;;;;;;;;5115432;28;20425;-78
2021/08/12 07:47:47;;;;;;;24.03;18.10;;;;;;;;;;5115343;28;20447;-78
2021/08/12 07:50:14;;;;;;;21.97;18.10;;;;;;;;;;5115471;28;20429;-79
2021/08/12 07:52:43;;;;;;;17.67;15.03;;;;;;;;;;5115146;28;20444;-79
2021/08/12 07:55:11;;;;;;;21.27;18.97;;;;;;;;;;5114701;28;20458;-79
2021/08/12 07:57:38;;;;;;;21.93;17.33;;;;;;;;;;5114693;28;20453;-80
2021/08/12 08:00:06;;;;;;;19.20;16.63;;;;;;;;;;5115060;28;20436;-79
2021/08/12 08:02:42;;;;;;;19.73;17.63;;;;;;;;;;5114794;28;20486;-79
2021/08/12 08:05:09;;;;;;;19.47;17.33;;;;;;;;;;5115095;28;20489;-80
2021/08/12 08:07:37;;;;;;;21.37;17.37;;;;;;;;;;5114826;28;20529;-79
2021/08/12 08:10:07;;;;;;;18.53;13.70;;;;;;;;;;5114514;28;20448;-79
2021/08/12 08:12:35;;;;;;;16.13;14.07;;;;;;;;;;5115238;28;20438;-80
2021/08/12 08:15:02;;;;;;;18.03;15.10;;;;;;;;;;5115590;28;20448;-80
2021/08/12 08:17:29;;;;;;;16.57;13.03;;;;;;;;;;5114698;28;20817;-79
2021/08/12 08:19:57;;;;;;;14.63;12.43;;;;;;;;;;5114641;28;20919;-80
2021/08/12 08:22:25;;;;;;;16.57;14.30;;;;;;;;;;5114278;28;20477;-80
2021/08/12 08:24:52;;;;;;;14.97;13.23;;;;;;;;;;5114705;28;20506;-80
2021/08/12 08:27:20;;;;;;;16.87;13.53;;;;;;;;;;5114474;28;20455;-80
2021/08/12 08:29:48;;;;;;;16.10;13.67;;;;;;;;;;5114492;28;20437;-80
2021/08/12 08:32:15;;;;;;;19.03;15.43;;;;;;;;;;5114390;28;20456;-80
2021/08/12 08:34:43;;;;;;;15.07;13.40;;;;;;;;;;5114269;28;20545;-80
2021/08/12 08:37:10;;;;;;;14.97;13.50;;;;;;;;;;5114347;28;20433;-80
2021/08/12 08:39:37;;;;;;;16.63;13.43;;;;;;;;;;5114012;28;20445;-81
2021/08/12 08:42:05;;;;;;;19.80;13.40;;;;;;;;;;5114226;28;20483;-80
2021/08/12 08:44:35;;;;;;;16.90;14.10;;;;;;;;;;5114235;28;20534;-80
2021/08/12 08:47:02;;;;;;;16.30;13.00;;;;;;;;;;5113903;28;20426;-80
2021/08/12 08:49:30;;;;;;;16.43;14.73;;;;;;;;;;5114152;28;20438;-80
2021/08/12 08:51:58;;;;;;;20.70;14.80;;;;;;;;;;5114185;28;20434;-81
2021/08/12 08:54:25;;;;;;;19.00;14.47;;;;;;;;;;5114075;28;20809;-81
2021/08/12 08:56:53;;;;;;;17.10;14.30;;;;;;;;;;5114144;28;20522;-80
2021/08/12 08:59:21;;;;;;;26.67;15.83;;;;;;;;;;5114033;28;20444;-80
2021/08/12 09:01:49;;;;;;;20.40;15.00;;;;;;;;;;5114156;28;20478;-80
2021/08/12 09:04:16;;;;;;;20.03;14.53;;;;;;;;;;5113718;28;20439;-80
2021/08/12 09:06:44;;;;;;;16.70;12.83;;;;;;;;;;5114268;28;20439;-80
2021/08/12 09:09:11;;;;;;;18.30;15.20;;;;;;;;;;5113933;28;20435;-80
2021/08/12 09:11:38;;;;;;;18.67;15.10;;;;;;;;;;5113644;28;20958;-82
2021/08/12 09:14:21;;;;;;;22.10;15.90;;;;;;;;;;5114363;28;20497;-81
2021/08/12 09:16:49;;;;;;;21.83;16.47;;;;;;;;;;5113253;28;20452;-81
2021/08/12 09:19:21;;;;;;;18.63;14.60;;;;;;;;;;5113845;28;21010;-82
2021/08/12 09:21:48;;;;;;;17.77;13.37;;;;;;;;;;5114306;28;20473;-80
2021/08/12 09:24:15;;;;;;;16.17;14.17;;;;;;;;;;5113567;28;20466;-82
2021/08/12 09:26:43;;;;;;;19.13;15.63;;;;;;;;;;5113461;28;20445;-80
2021/08/12 09:29:11;;;;;;;18.30;14.60;;;;;;;;;;5113692;28;20441;-80
2021/08/12 09:31:56;;;;;;;18.90;15.87;;;;;;;;;;5114422;28;20903;-81
2021/08/12 09:34:24;;;;;;;18.50;14.20;;;;;;;;;;5113348;28;20423;-78
2021/08/12 09:37:04;;;;;;;17.27;14.13;;;;;;;;;;5113711;28;20457;-80
2021/08/12 09:39:31;;;;;;;17.00;13.83;;;;;;;;;;5113350;28;20430;-80
2021/08/12 09:41:58;;;;;;;14.87;12.80;;;;;;;;;;5113152;28;20980;-79
2021/08/12 09:44:50;;;;;;;16.10;13.30;;;;;;;;;;5113505;28;20452;-81
2021/08/12 09:47:27;;;;;;;21.80;15.27;;;;;;;;;;5117494;28;20425;-78
2021/08/12 09:49:59;;;;;;;19.20;13.80;;;;;;;;;;5117754;28;20444;-82
2021/08/12 09:52:28;;;;;;;16.07;13.50;;;;;;;;;;5117904;28;20430;-81
2021/08/12 09:55:00;;;;;;;19.53;14.30;;;;;;;;;;5118258;28;20801;-80
2021/08/12 09:57:34;;;;;;;14.80;13.20;;;;;;;;;;5117682;28;20434;-80
2021/08/12 10:00:01;;;;;;;16.50;12.80;;;;;;;;;;5117484;28;20418;-79
2021/08/12 10:02:31;;;;;;;18.50;14.17;;;;;;;;;;5117917;28;20514;-81
2021/08/12 10:05:07;;;;;;;13.70;12.30;;;;;;;;;;5117822;28;20431;-81
2021/08/12 10:07:38;;;;;;;14.57;12.97;;;;;;;;;;5117182;28;20445;-78
2021/08/12 10:10:19;;;;;;;16.90;14.27;;;;;;;;;;5116895;28;20522;-80
2021/08/12 10:12:48;;;;;;;16.50;12.87;;;;;;;;;;5116883;28;20514;-80
2021/08/12 10:15:16;;;;;;;14.20;12.40;;;;;;;;;;5117052;28;20446;-79
2021/08/12 10:17:44;;;;;;;13.00;11.60;;;;;;;;;;5116794;28;20947;-77
2021/08/12 10:20:14;;;;;;;13.13;11.27;;;;;;;;;;5116667;28;20444;-77
2021/08/12 10:22:41;;;;;;;14.77;12.23;;;;;;;;;;5116520;28;20462;-77
2021/08/12 10:25:10;;;;;;;15.73;11.17;;;;;;;;;;5117516;28;20452;-79
2021/08/12 10:27:38;;;;;;;11.57;10.40;;;;;;;;;;5116938;28;20455;-77
2021/08/12 10:30:06;;;;;;;11.73;10.53;;;;;;;;;;5116866;28;20521;-81
2021/08/12 10:32:34;;;;;;;12.60;10.90;;;;;;;;;;5116552;28;20446;-78
2021/08/12 10:35:01;;;;;;;14.93;9.63;;;;;;;;;;5116936;28;20447;-78
2021/08/12 10:37:29;;;;;;;12.70;9.97;;;;;;;;;;5116845;28;20439;-79
2021/08/12 10:39:57;;;;;;;12.90;9.87;;;;;;;;;;5116448;28;20985;-79
2021/08/12 10:42:25;;;;;;;10.03;8.83;;;;;;;;;;5116226;28;20956;-76
2021/08/12 10:44:52;;;;;;;10.57;8.57;;;;;;;;;;5116350;28;20443;-77
2021/08/12 10:47:38;;;;;;;11.10;9.30;;;;;;;;;;5116212;28;20926;-77
2021/08/12 10:50:20;;;;;;;8.93;8.03;;;;;;;;;;5116865;28;20452;-80
2021/08/12 10:53:04;;;;;;;10.40;8.50;;;;;;;;;;5115414;28;20448;-78
2021/08/12 10:55:32;;;;;;;7.53;6.40;;;;;;;;;;5115578;28;20497;-77
2021/08/12 10:58:14;;;;;;;9.10;7.77;;;;;;;;;;5116206;28;20441;-79
2021/08/12 11:00:46;;;;;;;9.70;8.70;;;;;;;;;;5115733;28;20441;-80
2021/08/12 11:03:14;;;;;;;9.70;8.47;;;;;;;;;;5116192;28;20473;-78
2021/08/12 11:05:56;;;;;;;10.03;7.30;;;;;;;;;;5116159;28;20438;-78
2021/08/12 11:08:44;;;;;;;11.03;8.53;;;;;;;;;;5115256;28;20452;-77
2021/08/12 11:11:12;;;;;;;13.80;9.73;;;;;;;;;;5116182;28;20455;-79
2021/08/12 11:13:40;;;;;;;8.57;7.00;;;;;;;;;;5116199;28;20463;-78
2021/08/12 11:16:07;;;;;;;9.00;7.70;;;;;;;;;;5115552;28;20443;-79
2021/08/12 11:18:43;;;;;;;11.73;7.80;;;;;;;;;;5115805;28;20448;-78
2021/08/12 11:21:25;;;;;;;9.57;8.33;;;;;;;;;;5115949;28;20561;-78
2021/08/12 11:23:52;;;;;;;12.83;9.27;;;;;;;;;;5114454;28;21009;-79
2021/08/12 11:26:21;;;;;;;11.03;8.90;;;;;;;;;;5115269;28;20962;-78
2021/08/12 11:28:52;;;;;;;12.00;9.00;;;;;;;;;;5115154;28;20530;-78
2021/08/12 11:31:38;;;;;;;12.23;8.80;;;;;;;;;;5115663;28;20442;-78
2021/08/12 11:34:15;;;;;;;9.97;8.77;;;;;;;;;;5115604;28;20446;-78
2021/08/12 11:37:04;;;;;;;7.20;6.40;;;;;;;;;;5115158;28;20430;-77
2021/08/12 11:39:31;;;;;;;9.20;7.30;;;;;;;;;;5115905;28;20772;-76
2021/08/12 11:42:00;;;;;;;9.60;7.90;;;;;;;;;;5115381;28;20434;-78
2021/08/12 11:44:28;;;;;;;13.43;7.13;;;;;;;;;;5115588;28;20471;-78
2021/08/12 11:46:55;;;;;;;13.40;7.93;;;;;;;;;;5115001;28;20931;-78
2021/08/12 11:49:22;;;;;;;9.87;7.70;;;;;;;;;;5115295;28;20877;-79
2021/08/12 11:51:49;;;;;;;10.50;7.20;;;;;;;;;;5114872;28;20987;-78
2021/08/12 11:54:26;;;;;;;8.63;7.67;;;;;;;;;;5115039;28;20932;-77
2021/08/12 11:56:53;;;;;;;11.63;7.80;;;;;;;;;;5115493;28;20432;-78
2021/08/12 11:59:26;;;;;;;12.90;8.27;;;;;;;;;;5115072;28;20449;-78
2021/08/12 12:01:55;;;;;;;10.87;7.53;;;;;;;;;;5115136;28;20512;-77
2021/08/12 12:04:31;;;;;;;7.43;6.47;;;;;;;;;;5114768;28;21110;-79
2021/08/12 12:06:58;;;;;;;11.20;7.20;;;;;;;;;;5114434;28;20427;-78
2021/08/12 12:09:27;;;;;;;8.00;7.30;;;;;;;;;;5114177;28;20531;-78
2021/08/12 12:11:56;;;;;;;6.63;5.87;;;;;;;;;;5114907;28;20437;-79
2021/08/12 12:14:24;;;;;;;7.97;6.27;;;;;;;;;;5114775;28;20505;-79
2021/08/12 12:20:02;;;;;;;8.77;6.37;;;;;;;;;;5091807;28;20514;-79
2021/08/12 12:22:31;;;;;;;7.40;5.67;;;;;;;;;;5090751;28;20943;-80
2021/08/12 12:24:58;;;;;;;6.63;5.60;;;;;;;;;;5090564;28;20553;-80
2021/08/12 12:27:27;;;;;;;6.60;5.90;;;;;;;;;;5090664;28;20934;-79
2021/08/12 12:29:54;;;;;;;5.83;5.07;;;;;;;;;;5090647;28;20442;-79
2021/08/12 12:32:21;;;;;;;6.10;5.03;;;;;;;;;;5090589;28;20912;-80
2021/08/12 12:34:52;;;;;;;10.00;6.13;;;;;;;;;;5090715;28;20460;-80
2021/08/12 12:37:19;;;;;;;7.30;5.07;;;;;;;;;;5090450;28;20527;-79
2021/08/12 12:39:48;;;;;;;8.17;5.57;;;;;;;;;;5090349;28;20444;-80
2021/08/12 12:42:15;;;;;;;7.67;5.83;;;;;;;;;;5090318;28;20438;-79
2021/08/12 12:44:59;;;;;;;6.10;5.40;;;;;;;;;;5090725;28;20515;-79
2021/08/12 12:47:26;;;;;;;6.00;4.70;;;;;;;;;;5090544;28;20467;-79
2021/08/12 12:50:04;;;;;;;7.33;5.90;;;;;;;;;;5090162;28;20447;-80
2021/08/12 12:52:31;;;;;;;9.00;4.97;;;;;;;;;;5090048;28;20437;-80
2021/08/12 12:55:00;;;;;;;5.77;5.27;;;;;;;;;;5090549;28;20444;-81
2021/08/12 12:57:31;;;;;;;5.53;5.00;;;;;;;;;;5090032;28;20434;-71
2021/08/12 12:59:58;;;;;;;6.30;5.70;;;;;;;;;;5096208;28;20918;-83
2021/08/12 13:02:25;;;;;;;8.77;4.87;;;;;;;;;;5096429;28;20441;-78
2021/08/12 13:05:02;;;;;;;5.73;5.13;;;;;;;;;;5092147;28;20795;-78
2021/08/12 13:07:29;;;;;;;9.07;6.27;;;;;;;;;;5094133;28;20417;-83
2021/08/12 13:09:56;;;;;;;5.97;5.40;;;;;;;;;;5092714;28;20452;-80
2021/08/12 13:12:29;;;;;;;10.97;5.77;;;;;;;;;;5093615;28;20528;-81
2021/08/12 13:15:09;;;;;;;9.20;5.60;;;;;;;;;;5090553;28;20444;-80
2021/08/12 13:17:37;;;;;;;10.23;5.77;;;;;;;;;;5089702;28;20526;-83
2021/08/12 13:20:10;;;;;;;7.87;5.80;;;;;;;;;;5089833;28;20430;-82
2021/08/12 13:22:43;;;;;;;7.60;6.00;;;;;;;;;;5090978;28;20449;-82
2021/08/12 13:25:14;;;;;;;6.80;6.10;;;;;;;;;;5091168;28;20433;-83
2021/08/12 13:27:47;;;;;;;8.53;5.57;;;;;;;;;;5094341;28;20492;-79
2021/08/12 13:30:15;;;;;;;7.00;5.60;;;;;;;;;;5084023;28;20456;-81
2021/08/12 13:32:42;;;;;;;10.80;5.00;;;;;;;;;;5079071;28;20449;-81
2021/08/12 13:35:10;;;;;;;5.50;4.80;;;;;;;;;;5078486;28;20448;-83
2021/08/12 13:37:37;;;;;;;7.37;5.70;;;;;;;;;;5076865;28;20542;-79
2021/08/12 13:40:05;;;;;;;6.40;5.20;;;;;;;;;;5077401;28;20481;-78
2021/08/12 13:42:32;;;;;;;7.73;6.00;;;;;;;;;;5081482;28;20441;-82
2021/08/12 13:45:00;;;;;;;7.10;5.70;;;;;;;;;;5078318;28;20441;-81
2021/08/12 13:47:28;;;;;;;7.80;5.80;;;;;;;;;;5076477;28;20441;-78
2021/08/12 13:49:55;;;;;;;6.80;5.97;;;;;;;;;;5076001;28;20457;-76
2021/08/12 13:52:22;;;;;;;8.13;5.60;;;;;;;;;;5076038;28;20444;-84
2021/08/12 13:54:49;;;;;;;7.30;5.50;;;;;;;;;;5075868;28;20219;-84
2021/08/12 13:57:17;;;;;;;6.80;5.67;;;;;;;;;;5074866;28;20449;-81
2021/08/12 13:59:44;;;;;;;7.27;6.00;;;;;;;;;;5075085;28;20477;-80
2021/08/12 14:02:13;;;;;;;6.93;6.33;;;;;;;;;;5075373;28;20437;-81
2021/08/12 14:04:40;;;;;;;8.80;6.40;;;;;;;;;;5074938;28;20426;-80
2021/08/12 14:07:07;;;;;;;6.60;6.10;;;;;;;;;;5074654;28;20544;-82
2021/08/12 14:09:34;;;;;;;7.47;6.73;;;;;;;;;;5064175;28;20413;-80
2021/08/12 14:12:01;;;;;;;6.50;5.90;;;;;;;;;;5060911;28;20421;-81
2021/08/12 14:14:29;;;;;;;7.53;6.53;;;;;;;;;;5074359;28;20443;-81
2021/08/12 14:16:56;;;;;;;7.63;6.80;;;;;;;;;;5073722;28;20999;-80
2021/08/12 14:19:25;;;;;;;7.37;6.43;;;;;;;;;;5075134;28;20469;-80
2021/08/12 14:21:52;;;;;;;7.97;6.60;;;;;;;;;;5075665;28;20444;-80
2021/08/12 14:24:19;;;;;;;7.30;6.10;;;;;;;;;;5075048;28;20443;-73
2021/08/12 14:26:46;;;;;;;9.10;7.00;;;;;;;;;;5075268;28;20443;-81
2021/08/12 14:29:14;;;;;;;10.33;7.10;;;;;;;;;;5076291;28;20450;-82
2021/08/12 14:31:42;;;;;;;7.37;6.20;;;;;;;;;;5076264;28;20525;-84
2021/08/12 14:34:10;;;;;;;7.37;6.67;;;;;;;;;;5074582;28;20443;-83
2021/08/12 14:36:39;;;;;;;6.80;6.20;;;;;;;;;;5074624;28;20450;-84